createdAt,value
2023-01-23T00:01:34.847Z,78.10
2023-01-23T00:04:02.770Z,78.15
2023-01-23T00:06:30.596Z,78.07
2023-01-23T00:08:58.259Z,76.91
2023-01-23T00:11:27.662Z,76.59
2023-01-23T00:13:56.937Z,75.60
2023-01-23T00:16:26.500Z,76.59
2023-01-23T00:18:56.590Z,73.35
2023-01-23T00:21:26.437Z,72.51
2023-01-23T00:23:56.785Z,73.58
2023-01-23T00:26:27.474Z,73.87
2023-01-23T00:28:56.240Z,75.09
2023-01-23T00:31:30.635Z,75.58
2023-01-23T00:34:01.660Z,75.79
2023-01-23T00:36:47.642Z,76.22
2023-01-23T00:39:23.263Z,76.15
2023-01-23T00:41:50.871Z,76.95
2023-01-23T00:44:18.422Z,77.24
2023-01-23T00:46:46.129Z,76.61
2023-01-23T00:49:13.733Z,77.05
2023-01-23T00:51:41.117Z,76.07
2023-01-23T00:54:08.436Z,76.17
2023-01-23T00:56:36.122Z,76.05
2023-01-23T00:59:03.910Z,76.15
2023-01-23T01:01:32.819Z,76.10
2023-01-23T01:04:00.722Z,75.78
2023-01-23T01:06:30.060Z,75.30
2023-01-23T01:08:59.560Z,75.53
2023-01-23T01:11:27.327Z,75.54
2023-01-23T01:13:55.096Z,76.68
2023-01-23T01:16:24.390Z,77.38
2023-01-23T01:18:51.977Z,77.47
2023-01-23T01:21:20.268Z,78.45
2023-01-23T01:23:47.859Z,79.34
2023-01-23T01:26:15.386Z,77.98
2023-01-23T01:28:43.081Z,77.58
2023-01-23T01:31:15.792Z,76.09
2023-01-23T01:33:44.305Z,76.98
2023-01-23T01:36:14.584Z,75.66
2023-01-23T01:38:42.631Z,76.48
2023-01-23T01:41:12.208Z,77.07
2023-01-23T01:43:39.655Z,76.90
2023-01-23T01:46:07.015Z,77.59
2023-01-23T01:48:47.597Z,77.62
2023-01-23T01:51:30.142Z,77.63
2023-01-23T01:54:06.876Z,78.24
2023-01-23T01:56:41.251Z,77.49
2023-01-23T01:59:10.082Z,78.15
2023-01-23T02:01:40.847Z,77.60
2023-01-23T02:04:09.732Z,78.51
2023-01-23T02:06:37.388Z,78.36
2023-01-23T02:09:05.847Z,77.95
2023-01-23T02:11:34.063Z,77.75
2023-01-23T02:14:01.765Z,77.37
2023-01-23T02:16:33.954Z,78.10
2023-01-23T02:19:09.087Z,77.00
2023-01-23T02:21:38.065Z,77.97
2023-01-23T02:24:23.262Z,78.25
2023-01-23T02:26:52.158Z,78.94
2023-01-23T02:29:20.528Z,79.96
2023-01-23T02:31:53.343Z,80.99
2023-01-23T02:34:22.913Z,81.48
2023-01-23T02:36:51.408Z,82.00
2023-01-23T02:39:21.336Z,82.47
2023-01-23T02:41:54.400Z,83.69
2023-01-23T02:44:29.058Z,84.55
2023-01-23T02:47:12.362Z,83.95
2023-01-23T02:49:42.794Z,84.50
2023-01-23T02:52:10.892Z,84.27
2023-01-23T02:54:39.860Z,84.37
2023-01-23T02:57:07.495Z,84.70
2023-01-23T02:59:54.099Z,85.37
2023-01-23T03:02:21.678Z,86.12
2023-01-23T03:04:49.287Z,85.58
2023-01-23T03:07:16.736Z,84.91
2023-01-23T03:09:47.821Z,85.80
2023-01-23T03:12:15.849Z,85.40
2023-01-23T03:14:43.241Z,85.35
2023-01-23T03:17:11.559Z,85.69
2023-01-23T03:19:39.199Z,84.66
2023-01-23T03:22:07.236Z,82.96
2023-01-23T03:24:35.556Z,80.66
2023-01-23T03:27:03.359Z,80.27
2023-01-23T03:29:56.306Z,80.53
2023-01-23T03:32:26.032Z,78.07
2023-01-23T03:34:55.519Z,77.84
2023-01-23T03:37:23.755Z,77.71
2023-01-23T03:40:10.575Z,78.33
2023-01-23T03:42:38.006Z,79.90
2023-01-23T03:45:08.010Z,80.19
2023-01-23T03:47:36.671Z,79.42
2023-01-23T03:50:04.578Z,80.38
2023-01-23T03:52:38.085Z,79.73
2023-01-23T03:55:06.327Z,81.15
2023-01-23T03:57:34.442Z,79.84
2023-01-23T04:00:13.733Z,77.83
2023-01-23T04:02:41.535Z,82.12
2023-01-23T04:05:11.360Z,80.49
2023-01-23T04:07:39.588Z,78.87
2023-01-23T04:10:07.303Z,79.97
2023-01-23T04:12:35.188Z,79.09
2023-01-23T04:15:02.506Z,79.10
2023-01-23T04:17:31.668Z,78.17
2023-01-23T04:19:59.168Z,78.05
2023-01-23T04:22:26.865Z,78.68
2023-01-23T04:24:54.332Z,79.30
2023-01-23T04:27:21.792Z,77.12
2023-01-23T04:29:50.695Z,77.42
2023-01-23T04:32:19.220Z,77.32
2023-01-23T04:34:47.892Z,76.29
2023-01-23T04:37:16.296Z,77.25
2023-01-23T04:39:44.074Z,77.12
2023-01-23T04:42:11.737Z,74.96
2023-01-23T04:45:09.987Z,75.35
2023-01-23T04:48:06.979Z,76.74
2023-01-23T04:50:36.767Z,77.54
2023-01-23T04:53:06.242Z,77.22
2023-01-23T04:55:34.443Z,76.94
2023-01-23T04:58:04.925Z,73.71
2023-01-23T05:00:32.563Z,72.41
2023-01-23T05:03:02.774Z,70.33
2023-01-23T05:05:31.240Z,70.80
2023-01-23T05:08:01.125Z,72.29
2023-01-23T05:10:29.717Z,74.79
2023-01-23T05:13:00.980Z,78.81
2023-01-23T05:15:30.660Z,73.93
2023-01-23T05:17:58.659Z,76.25
2023-01-23T05:20:26.327Z,78.90
2023-01-23T05:22:58.409Z,83.00
2023-01-23T05:25:34.045Z,84.43
2023-01-23T05:28:02.104Z,88.13
2023-01-23T05:30:31.180Z,90.08
2023-01-23T05:33:14.184Z,89.95
2023-01-23T05:35:41.871Z,90.03
2023-01-23T05:38:10.435Z,90.86
2023-01-23T05:40:38.016Z,93.99
2023-01-23T05:43:25.410Z,96.36
2023-01-23T05:46:26.603Z,93.50
2023-01-23T05:48:54.369Z,93.50
2023-01-23T05:51:23.531Z,95.48
2023-01-23T05:53:52.159Z,95.24
2023-01-23T05:56:19.773Z,95.69
2023-01-23T05:59:13.469Z,97.20
2023-01-23T06:01:46.859Z,100.00
2023-01-23T06:04:33.079Z,100.00
2023-01-23T06:07:14.513Z,100.00
2023-01-23T06:09:42.659Z,100.00
2023-01-23T06:12:10.944Z,100.00
2023-01-23T06:14:39.356Z,100.00
2023-01-23T06:17:08.045Z,100.00
2023-01-23T06:19:35.579Z,100.00
2023-01-23T06:22:03.967Z,100.00
2023-01-23T06:24:39.006Z,100.00
2023-01-23T06:27:09.425Z,100.00
2023-01-23T06:29:38.953Z,100.00
2023-01-23T06:32:06.735Z,100.00
2023-01-23T06:34:36.694Z,100.00
2023-01-23T06:37:06.022Z,100.00
2023-01-23T06:39:34.341Z,100.00
2023-01-23T06:42:03.455Z,100.00
2023-01-23T06:44:37.855Z,100.00
2023-01-23T06:47:06.196Z,100.00
2023-01-23T06:49:34.102Z,100.00
2023-01-23T06:52:01.866Z,100.00
2023-01-23T06:54:29.901Z,100.00
2023-01-23T06:57:01.812Z,100.00
2023-01-23T06:59:29.920Z,100.00
2023-01-23T07:01:59.555Z,100.00
2023-01-23T07:04:38.196Z,100.00
2023-01-23T07:07:05.760Z,100.00
2023-01-23T07:09:34.412Z,100.00
2023-01-23T07:12:10.031Z,100.00
2023-01-23T07:14:37.618Z,100.00
2023-01-23T07:17:05.252Z,100.00
2023-01-23T07:19:32.727Z,100.00
2023-01-23T07:22:01.586Z,100.00
2023-01-23T07:24:31.757Z,100.00
2023-01-23T07:26:59.301Z,100.00
2023-01-23T07:29:27.096Z,100.00
2023-01-23T07:31:54.723Z,100.00
2023-01-23T07:34:22.219Z,100.00
2023-01-23T07:36:49.757Z,99.66
2023-01-23T07:39:17.299Z,99.75
2023-01-23T07:41:46.385Z,100.00
2023-01-23T07:44:17.610Z,100.00
2023-01-23T07:46:45.966Z,100.00
2023-01-23T07:49:14.034Z,100.00
2023-01-23T07:51:41.766Z,100.00
2023-01-23T07:54:09.725Z,100.00
2023-01-23T07:56:37.531Z,100.00
2023-01-23T07:59:05.242Z,100.00
2023-01-23T08:01:32.808Z,100.00
2023-01-23T08:04:00.393Z,100.00
2023-01-23T08:06:27.928Z,100.00
2023-01-23T08:08:55.399Z,100.00
2023-01-23T08:11:24.129Z,100.00
2023-01-23T08:13:51.646Z,100.00
2023-01-23T08:16:19.447Z,100.00
2023-01-23T08:18:47.252Z,100.00
2023-01-23T08:21:14.769Z,100.00
2023-01-23T08:23:42.348Z,100.00
2023-01-23T08:26:14.585Z,100.00
2023-01-23T08:28:43.565Z,100.00
2023-01-23T08:31:12.519Z,100.00
2023-01-23T08:33:41.478Z,100.00
2023-01-23T08:36:12.386Z,100.00
2023-01-23T08:38:39.964Z,100.00
2023-01-23T08:41:10.019Z,100.00
2023-01-23T08:43:37.849Z,100.00
2023-01-23T08:46:05.470Z,100.00
2023-01-23T08:48:34.280Z,100.00
2023-01-23T08:51:04.820Z,100.00
2023-01-23T08:53:33.531Z,100.00
2023-01-23T08:56:02.899Z,100.00
2023-01-23T08:58:30.531Z,100.00
2023-01-23T09:00:58.469Z,100.00
2023-01-23T09:03:26.769Z,100.00
2023-01-23T09:05:54.305Z,100.00
2023-01-23T09:08:21.865Z,100.00
2023-01-23T09:10:49.374Z,100.00
2023-01-23T09:13:17.341Z,100.00
2023-01-23T09:15:44.820Z,100.00
2023-01-23T09:18:12.361Z,100.00
2023-01-23T09:20:39.906Z,100.00
2023-01-23T09:23:07.563Z,100.00
2023-01-23T09:25:35.128Z,100.00
2023-01-23T09:28:02.683Z,100.00
2023-01-23T09:30:30.199Z,100.00
2023-01-23T09:32:57.754Z,100.00
2023-01-23T09:35:25.264Z,100.00
2023-01-23T09:38:01.684Z,100.00
2023-01-23T09:40:36.915Z,100.00
2023-01-23T09:43:16.296Z,100.00
2023-01-23T09:45:53.557Z,100.00
2023-01-23T09:48:39.732Z,100.00
2023-01-23T09:51:18.403Z,100.00
2023-01-23T09:53:46.575Z,100.00
2023-01-23T09:56:23.308Z,100.00
2023-01-23T09:59:02.455Z,100.00
2023-01-23T10:01:31.793Z,100.00
2023-01-23T10:04:00.850Z,100.00
2023-01-23T10:06:31.288Z,100.00
2023-01-23T10:09:30.643Z,100.00
2023-01-23T10:12:15.763Z,100.00
2023-01-23T10:15:10.588Z,100.00
2023-01-23T10:17:48.778Z,100.00
2023-01-23T10:20:41.090Z,100.00
2023-01-23T10:23:11.839Z,100.00
2023-01-23T10:25:41.190Z,100.00
2023-01-23T10:28:22.273Z,100.00
2023-01-23T10:30:56.488Z,100.00
2023-01-23T10:33:37.768Z,100.00
2023-01-23T10:36:23.874Z,100.00
2023-01-23T10:39:02.831Z,100.00
2023-01-23T10:41:30.537Z,100.00
2023-01-23T10:43:59.043Z,100.00
2023-01-23T10:46:42.533Z,100.00
2023-01-23T10:49:10.026Z,100.00
2023-01-23T10:51:37.439Z,100.00
2023-01-23T10:54:29.651Z,100.00
2023-01-23T10:57:04.732Z,100.00
2023-01-23T10:59:34.912Z,100.00
2023-01-23T11:02:04.787Z,100.00
2023-01-23T11:04:37.041Z,100.00
2023-01-23T11:07:18.255Z,100.00
2023-01-23T11:09:58.292Z,100.00
2023-01-23T11:12:31.856Z,100.00
2023-01-23T11:15:31.477Z,100.00
2023-01-23T11:18:01.004Z,100.00
2023-01-23T11:20:36.400Z,100.00
2023-01-23T11:23:05.572Z,100.00
2023-01-23T11:25:37.673Z,100.00
2023-01-23T11:28:34.917Z,100.00
2023-01-23T11:31:15.180Z,100.00
2023-01-23T11:33:55.397Z,100.00
2023-01-23T11:37:10.474Z,100.00
2023-01-23T11:39:58.366Z,100.00
2023-01-23T11:42:28.697Z,100.00
2023-01-23T11:44:59.505Z,100.00
2023-01-23T11:47:39.677Z,100.00
2023-01-23T11:50:15.971Z,100.00
2023-01-23T11:53:05.532Z,100.00
2023-01-23T11:55:51.720Z,100.00
2023-01-23T11:58:49.050Z,100.00
2023-01-23T12:01:32.921Z,100.00
2023-01-23T12:04:28.405Z,100.00
2023-01-23T12:07:11.006Z,100.00
2023-01-23T12:09:59.756Z,100.00
2023-01-23T12:12:45.515Z,100.00
2023-01-23T12:15:37.843Z,100.00
2023-01-23T12:18:05.207Z,100.00
2023-01-23T12:20:52.893Z,100.00
2023-01-23T12:23:42.759Z,100.00
2023-01-23T12:26:24.744Z,100.00
2023-01-23T12:29:24.557Z,100.00
2023-01-23T12:32:06.567Z,100.00
2023-01-23T12:34:45.205Z,100.00
2023-01-23T12:37:31.177Z,100.00
2023-01-23T12:40:13.081Z,100.00
2023-01-23T12:42:43.557Z,100.00
2023-01-23T12:45:10.957Z,100.00
2023-01-23T12:47:43.477Z,100.00
2023-01-23T12:50:36.841Z,100.00
2023-01-23T12:53:12.731Z,100.00
2023-01-23T12:55:59.781Z,99.28
2023-01-23T12:58:30.495Z,97.78
2023-01-23T13:01:01.639Z,97.46
2023-01-23T13:03:56.487Z,94.68
2023-01-23T13:06:42.838Z,93.95
2023-01-23T13:09:35.587Z,92.58
2023-01-23T13:12:11.798Z,93.10
2023-01-23T13:15:06.457Z,92.77
2023-01-23T13:17:37.347Z,92.20
2023-01-23T13:20:42.254Z,92.33
2023-01-23T13:23:32.650Z,90.50
2023-01-23T13:26:15.380Z,93.52
2023-01-23T13:28:53.933Z,93.61
2023-01-23T13:31:33.973Z,93.32
2023-01-23T13:34:14.872Z,93.49
2023-01-23T13:36:50.590Z,92.50
2023-01-23T13:39:18.026Z,94.00
2023-01-23T13:42:06.788Z,93.46
2023-01-23T13:44:41.772Z,91.06
2023-01-23T14:22:37.084Z,86.84
2023-01-23T14:25:16.544Z,86.05
2023-01-23T14:27:52.633Z,86.46
2023-01-23T14:30:30.367Z,86.91
2023-01-23T14:32:59.313Z,85.16
2023-01-23T14:35:32.756Z,84.23
2023-01-23T14:38:05.200Z,85.31
2023-01-23T14:40:48.934Z,86.53
2023-01-23T14:43:22.035Z,87.69
2023-01-23T14:45:57.276Z,88.95
2023-01-23T14:48:24.975Z,87.64
2023-01-23T14:51:21.419Z,87.50
2023-01-23T14:53:58.053Z,87.32
2023-01-23T14:56:29.951Z,87.70
2023-01-23T14:59:00.810Z,86.60
2023-01-23T15:01:34.106Z,86.00
2023-01-23T15:04:19.857Z,87.48
2023-01-23T15:06:53.677Z,87.53
2023-01-23T15:09:29.361Z,87.76
2023-01-23T15:12:08.546Z,88.28
2023-01-23T15:14:40.264Z,88.70
2023-01-23T15:17:15.490Z,88.60
2023-01-23T15:19:43.666Z,86.54
2023-01-23T15:22:21.995Z,87.88
2023-01-23T15:24:49.459Z,88.95
2023-01-23T15:27:27.881Z,87.50
2023-01-23T15:30:33.585Z,85.78
2023-01-23T15:33:07.197Z,85.78
2023-01-23T15:35:37.146Z,86.15
2023-01-23T15:38:08.673Z,85.73
2023-01-23T15:40:38.708Z,85.88
2023-01-23T15:43:11.725Z,85.53
2023-01-23T15:45:39.128Z,87.46
2023-01-23T15:48:06.851Z,90.22
2023-01-23T15:50:34.475Z,91.12
2023-01-23T15:53:02.243Z,91.37
2023-01-23T15:55:29.803Z,91.04
2023-01-23T15:57:57.326Z,90.49
2023-01-23T16:00:27.166Z,89.12
2023-01-23T16:02:57.802Z,89.43
2023-01-23T16:05:28.730Z,89.10
2023-01-23T16:07:57.862Z,86.66
2023-01-23T16:10:29.235Z,87.03
2023-01-23T16:12:58.128Z,86.12
2023-01-23T16:15:32.983Z,85.75
2023-01-23T16:18:03.015Z,85.51
2023-01-23T16:20:34.735Z,86.06
2023-01-23T16:23:24.887Z,86.22
2023-01-23T16:25:53.419Z,86.14
2023-01-23T16:28:23.846Z,87.34
2023-01-23T16:30:52.425Z,85.16
2023-01-23T16:33:20.509Z,84.21
2023-01-23T16:35:50.874Z,83.73
2023-01-23T16:38:22.755Z,85.15
2023-01-23T16:40:53.139Z,83.40
2023-01-23T16:43:22.173Z,84.31
2023-01-23T16:45:49.704Z,84.88
2023-01-23T16:48:26.286Z,84.52
2023-01-23T16:51:02.443Z,84.24
2023-01-23T16:53:37.259Z,85.67
2023-01-23T16:56:06.059Z,83.46
2023-01-23T16:58:39.532Z,83.52
2023-01-23T17:01:15.537Z,82.72
2023-01-23T17:03:44.697Z,82.76
2023-01-23T17:06:16.567Z,82.46
2023-01-23T17:08:44.169Z,82.28
2023-01-23T17:11:20.393Z,82.00
2023-01-23T17:13:50.500Z,81.44
2023-01-23T17:16:26.995Z,81.38
2023-01-23T17:18:57.212Z,82.36
2023-01-23T17:21:34.737Z,81.46
2023-01-23T17:24:02.266Z,82.41
2023-01-23T17:26:29.775Z,81.70
2023-01-23T17:28:57.621Z,81.50
2023-01-23T17:31:28.568Z,81.89
2023-01-23T17:33:56.261Z,84.62
2023-01-23T17:36:26.318Z,87.90
2023-01-23T17:38:55.977Z,90.41
2023-01-23T17:41:23.631Z,91.07
2023-01-23T17:43:52.782Z,92.71
2023-01-23T17:46:24.167Z,91.03
2023-01-23T17:48:51.890Z,90.83
2023-01-23T17:51:20.864Z,88.36
2023-01-23T17:53:49.215Z,87.53
2023-01-23T17:56:16.879Z,86.31
2023-01-23T17:58:44.758Z,86.48
2023-01-23T18:01:19.409Z,86.02
2023-01-23T18:03:46.908Z,86.22
2023-01-23T18:06:14.388Z,86.81
2023-01-23T18:08:42.468Z,85.82
2023-01-23T18:11:33.219Z,83.65
2023-01-23T18:14:35.064Z,84.55
2023-01-23T18:17:02.815Z,82.78
2023-01-23T18:19:30.471Z,81.94
2023-01-23T18:21:58.212Z,82.23
2023-01-23T18:24:33.002Z,82.82
2023-01-23T18:27:06.525Z,82.35
2023-01-23T18:29:34.008Z,82.67
2023-01-23T18:32:37.221Z,83.01
2023-01-23T18:35:23.279Z,82.11
2023-01-23T18:38:06.343Z,82.25
2023-01-23T18:40:57.163Z,81.35
2023-01-23T18:43:47.242Z,81.87
2023-01-23T18:46:17.536Z,81.73
2023-01-23T18:48:46.584Z,81.65
2023-01-23T18:51:19.994Z,80.88
2023-01-23T18:54:08.469Z,81.70
2023-01-23T18:56:51.246Z,81.86
2023-01-23T18:59:33.885Z,84.75
2023-01-23T19:02:21.924Z,88.47
2023-01-23T19:05:19.376Z,92.63
2023-01-23T19:07:48.393Z,97.97
2023-01-23T19:10:18.531Z,99.93
2023-01-23T19:13:36.842Z,100.00
2023-01-23T19:16:10.954Z,100.00
2023-01-23T19:18:53.262Z,100.00
2023-01-23T19:21:26.784Z,96.61
2023-01-23T19:23:58.742Z,96.01
2023-01-23T19:26:29.649Z,94.93
2023-01-23T19:28:59.705Z,94.19
2023-01-23T19:31:28.849Z,92.33
2023-01-23T19:33:57.058Z,90.56
2023-01-23T19:36:25.755Z,88.68
2023-01-23T19:39:00.470Z,88.33
2023-01-23T19:41:42.074Z,87.46
2023-01-23T19:44:14.731Z,86.69
2023-01-23T19:46:42.962Z,85.05
2023-01-23T19:49:11.532Z,85.16
2023-01-23T19:51:40.316Z,84.33
2023-01-23T19:54:09.524Z,83.62
2023-01-23T19:56:38.937Z,82.04
2023-01-23T19:59:07.772Z,80.99
2023-01-23T20:01:43.553Z,79.48
2023-01-23T20:04:16.861Z,81.09
2023-01-23T20:06:49.678Z,81.91
2023-01-23T20:09:18.036Z,82.21
2023-01-23T20:11:47.035Z,82.33
2023-01-23T20:14:15.262Z,83.34
2023-01-23T20:16:43.462Z,82.72
2023-01-23T20:19:14.414Z,82.80
2023-01-23T20:21:42.136Z,84.76
2023-01-23T20:24:09.840Z,86.44
2023-01-23T20:26:37.920Z,88.25
2023-01-23T20:29:07.392Z,90.36
2023-01-23T20:31:35.906Z,89.70
2023-01-23T20:34:04.711Z,91.48
2023-01-23T20:36:33.114Z,92.06
2023-01-23T20:39:00.769Z,90.94
2023-01-23T20:41:28.288Z,90.87
2023-01-23T20:43:55.895Z,90.76
2023-01-23T20:46:24.154Z,90.79
2023-01-23T20:48:51.877Z,91.67
2023-01-23T20:51:19.635Z,91.91
2023-01-23T20:53:47.458Z,91.54
2023-01-23T20:56:18.459Z,90.33
2023-01-23T20:59:07.444Z,90.69
2023-01-23T21:01:55.632Z,90.06
2023-01-23T21:04:25.005Z,89.69
2023-01-23T21:06:53.040Z,89.02
2023-01-23T21:09:20.640Z,89.80
2023-01-23T21:11:50.042Z,90.14
2023-01-23T21:14:18.255Z,91.12
2023-01-23T21:16:46.335Z,91.28
2023-01-23T21:19:14.836Z,91.37
2023-01-23T21:21:42.640Z,91.55
2023-01-23T21:24:10.441Z,91.53
2023-01-23T21:26:38.635Z,91.27
2023-01-23T21:29:07.147Z,91.42
2023-01-23T21:31:37.350Z,93.22
2023-01-23T21:34:10.517Z,95.77
2023-01-23T21:36:39.329Z,96.45
2023-01-23T21:39:09.411Z,98.24
2023-01-23T21:41:37.891Z,99.43
2023-01-23T21:44:05.441Z,99.02
2023-01-23T21:46:33.069Z,97.33
2023-01-23T21:49:00.625Z,97.31
2023-01-23T21:51:28.439Z,98.19
2023-01-23T21:53:56.052Z,98.67
2023-01-23T21:56:24.277Z,100.00
2023-01-23T21:58:51.810Z,100.00
2023-01-23T22:01:37.737Z,100.00
2023-01-23T22:04:11.840Z,97.23
2023-01-23T22:06:41.672Z,95.79
2023-01-23T22:09:13.008Z,98.08
2023-01-23T22:11:40.550Z,97.73
2023-01-23T22:14:08.050Z,97.66
2023-01-23T22:16:48.021Z,98.30
2023-01-23T22:19:19.609Z,98.14
2023-01-23T22:21:47.139Z,96.51
2023-01-23T22:24:14.991Z,98.27
2023-01-23T22:26:43.292Z,95.39
2023-01-23T22:29:12.962Z,94.27
2023-01-23T22:31:40.718Z,94.88
2023-01-23T22:34:08.719Z,95.81
2023-01-23T22:36:36.454Z,96.74
2023-01-23T22:39:04.304Z,97.60
2023-01-23T22:41:32.547Z,98.03
2023-01-23T22:44:00.054Z,98.14
2023-01-23T22:46:28.505Z,98.96
2023-01-23T22:48:56.037Z,97.84
2023-01-23T22:51:26.623Z,98.77
2023-01-23T22:53:55.832Z,97.54
2023-01-23T22:56:24.271Z,99.36
2023-01-23T22:58:53.577Z,99.61
2023-01-23T23:01:24.636Z,100.00
2023-01-23T23:03:52.220Z,100.00
2023-01-23T23:06:20.363Z,100.00
2023-01-23T23:08:48.625Z,100.00
2023-01-23T23:11:19.641Z,100.00
2023-01-23T23:13:47.749Z,100.00
2023-01-23T23:16:18.505Z,100.00
2023-01-23T23:18:47.935Z,100.00
2023-01-23T23:21:18.160Z,100.00
2023-01-23T23:23:46.353Z,100.00
2023-01-23T23:26:14.134Z,100.00
2023-01-23T23:28:42.417Z,100.00
2023-01-23T23:31:10.648Z,100.00
2023-01-23T23:33:38.376Z,100.00
2023-01-23T23:36:06.871Z,100.00
2023-01-23T23:38:34.670Z,100.00
2023-01-23T23:41:04.738Z,100.00
2023-01-23T23:43:32.663Z,100.00
2023-01-23T23:46:03.904Z,100.00
2023-01-23T23:48:33.235Z,100.00
2023-01-23T23:51:05.908Z,100.00
2023-01-23T23:53:34.053Z,97.90
2023-01-23T23:56:01.620Z,96.44
2023-01-23T23:58:29.315Z,96.89
